createdAt,value
2023-09-22T00:01:01.254Z,0.98
2023-09-22T00:03:30.321Z,1.63
2023-09-22T00:05:58.388Z,2.08
2023-09-22T00:08:25.609Z,3.13
2023-09-22T00:10:52.835Z,2.50
2023-09-22T00:13:20.128Z,1.40
2023-09-22T00:15:47.476Z,3.15
2023-09-22T00:18:14.692Z,1.10
2023-09-22T00:20:41.946Z,2.03
2023-09-22T00:23:09.203Z,3.22
2023-09-22T00:25:36.415Z,1.63
2023-09-22T00:28:03.857Z,0.70
2023-09-22T00:30:31.294Z,2.40
2023-09-22T00:32:59.045Z,1.77
2023-09-22T00:35:27.116Z,1.48
2023-09-22T00:37:54.289Z,1.02
2023-09-22T00:40:24.163Z,4.07
2023-09-22T00:43:10.659Z,1.58
2023-09-22T00:45:45.172Z,1.05
2023-09-22T00:48:37.627Z,1.02
2023-09-22T00:51:05.100Z,2.15
2023-09-22T00:53:35.675Z,1.85
2023-09-22T00:56:05.833Z,2.13
2023-09-22T00:58:33.676Z,2.85
2023-09-22T01:01:00.847Z,0.90
2023-09-22T01:03:31.002Z,2.90
2023-09-22T01:05:58.653Z,2.63
2023-09-22T01:08:25.820Z,1.15
2023-09-22T01:10:52.996Z,2.45
2023-09-22T01:13:20.304Z,1.98
2023-09-22T01:15:47.754Z,2.13
2023-09-22T01:18:15.005Z,2.17
2023-09-22T01:20:46.316Z,0.90
2023-09-22T01:23:14.769Z,3.30
2023-09-22T01:25:45.720Z,3.63
2023-09-22T01:28:13.894Z,1.67
2023-09-22T01:30:41.740Z,4.53
2023-09-22T01:33:09.924Z,4.65
2023-09-22T01:35:38.724Z,2.53
2023-09-22T01:38:13.169Z,3.90
2023-09-22T01:40:41.954Z,4.18
2023-09-22T01:43:09.555Z,2.45
2023-09-22T01:45:38.037Z,2.13
2023-09-22T01:48:09.172Z,1.80
2023-09-22T01:50:38.841Z,4.22
2023-09-22T01:53:09.407Z,2.45
2023-09-22T01:55:40.796Z,2.25
2023-09-22T01:58:09.009Z,4.72
2023-09-22T02:00:36.904Z,3.90
2023-09-22T02:03:04.675Z,3.38
2023-09-22T02:05:32.508Z,2.97
2023-09-22T02:08:01.303Z,3.95
2023-09-22T02:10:28.952Z,5.93
2023-09-22T02:12:56.256Z,5.70
2023-09-22T02:15:23.641Z,3.72
2023-09-22T02:17:51.213Z,2.85
2023-09-22T02:20:23.513Z,2.70
2023-09-22T02:22:56.667Z,3.95
2023-09-22T02:25:25.601Z,3.58
2023-09-22T02:27:56.563Z,6.53
2023-09-22T02:30:25.043Z,2.83
2023-09-22T02:32:55.743Z,4.88
2023-09-22T02:35:23.644Z,2.63
2023-09-22T02:37:50.930Z,3.22
2023-09-22T02:40:19.135Z,4.03
2023-09-22T02:42:46.996Z,3.03
2023-09-22T02:45:16.447Z,2.20
2023-09-22T02:47:44.019Z,2.33
2023-09-22T02:50:14.103Z,2.58
2023-09-22T02:52:41.538Z,2.78
2023-09-22T02:55:10.513Z,4.00
2023-09-22T02:57:37.869Z,3.78
2023-09-22T03:00:14.732Z,4.22
2023-09-22T03:02:44.076Z,2.78
2023-09-22T03:05:12.327Z,3.92
2023-09-22T03:07:44.230Z,6.15
2023-09-22T03:10:12.819Z,4.20
2023-09-22T03:12:40.349Z,2.60
2023-09-22T03:15:11.016Z,2.78
2023-09-22T03:17:39.124Z,5.82
2023-09-22T03:20:14.090Z,4.82
2023-09-22T03:22:42.163Z,3.30
2023-09-22T03:25:10.831Z,5.13
2023-09-22T03:27:40.099Z,3.00
2023-09-22T03:30:10.119Z,4.28
2023-09-22T03:32:40.600Z,2.58
2023-09-22T03:35:10.171Z,3.63
2023-09-22T03:37:41.005Z,3.00
2023-09-22T03:40:16.813Z,5.80
2023-09-22T03:42:46.323Z,4.25
2023-09-22T03:45:14.414Z,5.88
2023-09-22T03:47:42.599Z,5.63
2023-09-22T03:50:11.162Z,3.28
2023-09-22T03:52:39.574Z,5.40
2023-09-22T03:55:07.042Z,2.83
2023-09-22T03:57:34.545Z,4.78
2023-09-22T04:00:02.248Z,4.18
2023-09-22T04:02:37.407Z,3.65
2023-09-22T04:05:05.263Z,3.08
2023-09-22T04:07:32.651Z,2.53
2023-09-22T04:10:00.045Z,4.10
2023-09-22T04:12:27.443Z,3.63
2023-09-22T04:14:54.776Z,2.88
2023-09-22T04:17:22.004Z,2.22
2023-09-22T04:19:51.944Z,3.83
2023-09-22T04:22:20.181Z,4.32
2023-09-22T04:24:48.934Z,2.00
2023-09-22T04:27:16.281Z,3.53
2023-09-22T04:29:43.959Z,3.63
2023-09-22T04:32:11.075Z,3.17
2023-09-22T04:34:39.272Z,2.80
2023-09-22T04:37:07.067Z,4.18
2023-09-22T04:39:34.925Z,3.25
2023-09-22T04:42:03.570Z,7.13
2023-09-22T04:44:32.170Z,4.75
2023-09-22T04:47:01.367Z,5.75
2023-09-22T04:49:28.810Z,3.65
2023-09-22T04:51:56.090Z,2.42
2023-09-22T04:54:24.060Z,2.42
2023-09-22T04:56:52.706Z,2.47
2023-09-22T04:59:20.156Z,2.28
2023-09-22T05:01:47.491Z,3.97
2023-09-22T05:04:14.856Z,2.90
2023-09-22T05:06:44.816Z,3.17
2023-09-22T05:09:12.797Z,2.97
2023-09-22T05:11:40.536Z,4.38
2023-09-22T05:14:08.011Z,4.00
2023-09-22T05:16:35.348Z,3.53
2023-09-22T05:19:02.663Z,5.05
2023-09-22T05:21:30.196Z,6.00
2023-09-22T05:23:57.430Z,3.70
2023-09-22T05:26:24.745Z,7.03
2023-09-22T05:28:52.093Z,5.10
2023-09-22T05:31:20.837Z,3.83
2023-09-22T05:33:50.969Z,5.00
2023-09-22T05:36:18.122Z,5.43
2023-09-22T05:38:45.486Z,4.22
2023-09-22T05:41:12.950Z,4.60
2023-09-22T05:43:40.354Z,4.70
2023-09-22T05:46:08.703Z,5.32
2023-09-22T05:48:36.209Z,5.10
2023-09-22T05:51:03.515Z,3.20
2023-09-22T05:53:36.022Z,7.43
2023-09-22T05:56:10.763Z,5.05
2023-09-22T05:58:39.540Z,5.78
2023-09-22T06:01:16.292Z,4.53
2023-09-22T06:03:45.453Z,4.55
2023-09-22T06:06:14.376Z,6.25
2023-09-22T06:08:44.062Z,9.25
2023-09-22T06:11:12.153Z,6.43
2023-09-22T06:13:40.262Z,6.28
2023-09-22T06:16:08.288Z,4.95
2023-09-22T06:18:35.835Z,6.13
2023-09-22T06:21:04.360Z,10.75
2023-09-22T06:23:31.612Z,5.95
2023-09-22T06:26:03.938Z,11.82
2023-09-22T06:28:31.616Z,8.98
2023-09-22T06:31:02.926Z,11.55
2023-09-22T06:33:33.544Z,4.73
2023-09-22T06:36:05.590Z,6.47
2023-09-22T06:38:34.868Z,5.13
2023-09-22T06:41:09.609Z,6.28
2023-09-22T06:43:56.555Z,4.97
2023-09-22T06:46:25.931Z,8.20
2023-09-22T06:48:53.632Z,7.80
2023-09-22T06:51:20.920Z,5.07
2023-09-22T06:53:49.445Z,9.15
2023-09-22T06:56:19.597Z,8.75
2023-09-22T06:58:49.156Z,7.93
2023-09-22T07:01:18.384Z,7.88
2023-09-22T07:03:47.005Z,5.70
2023-09-22T07:06:18.112Z,5.78
2023-09-22T07:08:48.099Z,6.43
2023-09-22T07:11:19.856Z,7.53
2023-09-22T07:13:47.166Z,6.20
2023-09-22T07:16:14.436Z,5.38
2023-09-22T07:18:41.764Z,8.15
2023-09-22T07:21:12.544Z,6.68
2023-09-22T07:23:39.926Z,6.95
2023-09-22T07:26:12.766Z,8.40
2023-09-22T07:28:40.852Z,8.90
2023-09-22T07:31:13.039Z,8.38
2023-09-22T07:33:41.377Z,7.53
2023-09-22T07:36:08.767Z,6.78
2023-09-22T07:38:36.370Z,10.57
2023-09-22T07:41:04.404Z,9.02
2023-09-22T07:43:31.912Z,8.88
2023-09-22T07:46:02.540Z,6.07
2023-09-22T07:48:32.086Z,7.20
2023-09-22T07:51:01.622Z,7.75
2023-09-22T07:53:29.987Z,8.43
2023-09-22T07:56:00.966Z,6.70
2023-09-22T07:58:30.007Z,5.53
2023-09-22T08:01:01.224Z,5.70
2023-09-22T08:03:29.034Z,4.55
2023-09-22T08:05:56.477Z,8.15
2023-09-22T08:08:25.927Z,6.43
2023-09-22T08:10:55.088Z,8.98
2023-09-22T08:13:23.147Z,6.97
2023-09-22T08:15:50.691Z,9.32
2023-09-22T08:18:18.172Z,7.15
2023-09-22T08:20:45.417Z,9.63
2023-09-22T08:23:12.611Z,9.20
2023-09-22T08:25:39.922Z,11.52
2023-09-22T08:28:07.231Z,8.38
2023-09-22T08:30:34.702Z,11.10
2023-09-22T08:33:02.133Z,6.97
2023-09-22T08:35:29.348Z,9.93
2023-09-22T08:37:57.177Z,10.77
2023-09-22T08:40:24.878Z,10.73
2023-09-22T08:42:54.280Z,9.57
2023-09-22T08:45:22.281Z,8.57
2023-09-22T08:47:50.892Z,8.65
2023-09-22T08:50:20.128Z,7.63
2023-09-22T08:52:52.576Z,12.30
2023-09-22T08:55:22.300Z,8.77
2023-09-22T08:57:50.497Z,9.98
2023-09-22T09:00:20.708Z,11.63
2023-09-22T09:02:49.677Z,9.32
2023-09-22T09:05:28.915Z,8.88
2023-09-22T09:08:10.678Z,8.27
2023-09-22T09:10:38.364Z,8.33
2023-09-22T09:13:08.258Z,6.78
2023-09-22T09:15:44.761Z,7.93
2023-09-22T09:18:14.128Z,8.65
2023-09-22T09:20:48.517Z,7.68
2023-09-22T09:23:29.863Z,11.13
2023-09-22T09:25:57.068Z,8.35
2023-09-22T09:28:25.813Z,9.23
2023-09-22T09:30:58.792Z,10.18
2023-09-22T09:33:36.498Z,8.65
2023-09-22T09:36:16.519Z,7.45
2023-09-22T09:38:44.396Z,8.70
2023-09-22T09:41:12.390Z,7.07
2023-09-22T09:43:46.143Z,7.95
2023-09-22T09:46:17.933Z,5.53
2023-09-22T09:48:47.496Z,8.27
2023-09-22T09:51:20.870Z,8.95
2023-09-22T09:53:51.094Z,8.07
2023-09-22T09:56:19.092Z,7.55
2023-09-22T09:58:47.158Z,7.88
2023-09-22T10:01:15.372Z,6.43
2023-09-22T10:03:44.306Z,7.22
2023-09-22T10:06:15.056Z,5.82
2023-09-22T10:08:42.705Z,5.40
2023-09-22T10:11:26.109Z,5.97
2023-09-22T10:13:55.076Z,6.93
2023-09-22T10:16:31.424Z,7.50
2023-09-22T10:19:07.477Z,4.28
2023-09-22T10:21:52.982Z,4.47
2023-09-22T10:24:27.065Z,4.03
2023-09-22T10:27:10.881Z,5.28
2023-09-22T10:29:56.661Z,4.40
2023-09-22T10:32:29.779Z,3.53
2023-09-22T10:35:12.303Z,3.33
2023-09-22T10:37:59.228Z,6.32
2023-09-22T10:40:26.530Z,4.18
2023-09-22T10:42:54.218Z,4.18
2023-09-22T10:45:30.098Z,3.30
2023-09-22T10:48:02.197Z,3.30
2023-09-22T10:50:33.652Z,3.75
2023-09-22T10:53:09.218Z,3.03
2023-09-22T10:55:42.268Z,3.88
2023-09-22T10:58:19.733Z,2.17
2023-09-22T11:00:56.515Z,4.53
2023-09-22T11:03:24.848Z,3.60
2023-09-22T11:06:08.393Z,3.97
2023-09-22T11:09:01.294Z,2.85
2023-09-22T11:11:29.586Z,3.72
2023-09-22T11:13:58.508Z,2.72
2023-09-22T11:16:26.322Z,3.20
2023-09-22T11:19:09.628Z,2.50
2023-09-22T11:21:42.208Z,6.07
2023-09-22T11:24:10.253Z,2.22
2023-09-22T11:26:44.880Z,2.13
2023-09-22T11:29:12.273Z,2.50
2023-09-22T11:31:52.432Z,4.05
2023-09-22T11:34:24.533Z,3.53
2023-09-22T11:36:53.775Z,1.55
2023-09-22T11:39:29.373Z,1.45
2023-09-22T11:41:57.289Z,3.42
2023-09-22T11:44:25.635Z,2.55
2023-09-22T11:46:53.710Z,2.63
2023-09-22T11:49:22.755Z,3.03
2023-09-22T11:51:58.344Z,2.85
2023-09-22T11:54:31.684Z,2.33
2023-09-22T11:57:00.311Z,1.60
2023-09-22T11:59:32.331Z,2.13
2023-09-22T12:02:04.444Z,0.85
2023-09-22T12:04:36.272Z,2.00
2023-09-22T12:07:03.604Z,2.70
2023-09-22T12:09:30.850Z,2.25
2023-09-22T12:11:58.104Z,1.00
2023-09-22T12:14:25.530Z,3.03
2023-09-22T12:16:55.602Z,3.10
2023-09-22T12:19:26.367Z,0.85
2023-09-22T12:21:54.328Z,4.45
2023-09-22T12:24:21.573Z,3.63
2023-09-22T12:26:48.845Z,1.80
2023-09-22T12:29:17.816Z,2.92
2023-09-22T12:31:46.385Z,0.98
2023-09-22T12:34:14.105Z,1.60
2023-09-22T12:36:42.138Z,1.65
2023-09-22T12:39:11.971Z,1.17
2023-09-22T12:41:39.514Z,1.45
2023-09-22T12:44:07.063Z,1.70
2023-09-22T12:46:34.553Z,8.70
2023-09-22T12:49:01.969Z,1.52
2023-09-22T12:51:29.804Z,1.38
2023-09-22T12:53:57.505Z,2.67
2023-09-22T12:56:24.946Z,3.30
2023-09-22T12:58:52.246Z,1.67
2023-09-22T13:01:19.762Z,1.58
2023-09-22T13:03:47.664Z,1.98
2023-09-22T13:06:15.951Z,1.58
2023-09-22T13:08:43.266Z,1.98
2023-09-22T13:11:15.568Z,2.90
2023-09-22T13:16:11.410Z,2.38
2023-09-22T13:18:38.679Z,1.85
2023-09-22T13:21:15.340Z,2.63
2023-09-22T13:23:43.644Z,2.85
2023-09-22T13:26:18.321Z,2.10
2023-09-22T13:28:46.667Z,3.35
2023-09-22T13:31:14.256Z,1.00
2023-09-22T13:33:41.534Z,2.72
2023-09-22T13:36:16.997Z,2.25
2023-09-22T13:38:44.420Z,3.30
2023-09-22T13:41:15.594Z,2.05
2023-09-22T13:43:45.546Z,2.87
2023-09-22T13:46:13.779Z,1.60
2023-09-22T13:48:41.875Z,4.55
2023-09-22T13:51:10.007Z,1.08
2023-09-22T13:53:37.837Z,1.42
2023-09-22T13:56:08.189Z,5.13
2023-09-22T13:58:35.754Z,1.77
2023-09-22T14:01:16.410Z,2.75
2023-09-22T14:03:44.338Z,6.22
2023-09-22T14:06:19.294Z,2.72
2023-09-22T14:08:47.046Z,3.10
2023-09-22T14:11:15.078Z,3.17
2023-09-22T14:13:43.190Z,1.60
2023-09-22T14:16:10.626Z,2.92
2023-09-22T14:18:38.832Z,2.22
2023-09-22T14:21:08.679Z,3.90
2023-09-22T14:23:36.188Z,3.72
2023-09-22T14:26:04.467Z,1.88
2023-09-22T14:28:32.364Z,2.30
2023-09-22T14:31:00.514Z,3.70
2023-09-22T14:33:27.873Z,4.25
2023-09-22T14:35:55.193Z,3.42
2023-09-22T14:38:23.391Z,2.53
2023-09-22T14:40:50.715Z,2.88
2023-09-22T14:43:17.901Z,2.38
2023-09-22T14:45:45.102Z,3.92
2023-09-22T14:48:12.391Z,2.60
2023-09-22T14:50:40.084Z,1.30
2023-09-22T14:53:07.970Z,3.55
2023-09-22T14:55:35.287Z,5.28
2023-09-22T14:58:02.755Z,2.67
2023-09-22T15:00:30.604Z,2.97
2023-09-22T15:03:00.293Z,2.55
2023-09-22T15:05:27.743Z,1.67
2023-09-22T15:07:54.972Z,4.93
2023-09-22T15:10:23.075Z,2.95
2023-09-22T15:12:50.560Z,3.40
2023-09-22T15:15:17.855Z,2.88
2023-09-22T15:17:46.268Z,2.65
2023-09-22T15:20:15.140Z,3.05
2023-09-22T15:22:43.720Z,1.58
2023-09-22T15:25:12.052Z,2.25
2023-09-22T15:27:45.303Z,2.00
2023-09-22T15:30:12.856Z,2.17
2023-09-22T15:32:40.198Z,2.35
2023-09-22T15:35:08.454Z,2.58
2023-09-22T15:37:36.004Z,1.80
2023-09-22T15:40:07.651Z,0.88
2023-09-22T15:42:34.964Z,0.75
2023-09-22T15:45:03.279Z,2.63
2023-09-22T15:47:32.878Z,4.60
2023-09-22T15:50:00.340Z,1.33
2023-09-22T15:52:28.673Z,3.30
2023-09-22T15:54:55.945Z,2.13
2023-09-22T15:57:23.143Z,0.55
2023-09-22T15:59:50.290Z,0.70
2023-09-22T16:02:17.845Z,1.85
2023-09-22T16:04:46.133Z,0.95
2023-09-22T16:07:13.371Z,0.63
2023-09-22T16:09:42.038Z,1.45
2023-09-22T16:12:10.087Z,3.42
2023-09-22T16:14:37.364Z,1.15
2023-09-22T16:17:05.447Z,1.85
2023-09-22T16:19:32.883Z,2.42
2023-09-22T16:22:00.160Z,2.53
2023-09-22T16:24:27.366Z,2.13
2023-09-22T16:26:54.613Z,1.75
2023-09-22T16:29:21.980Z,2.83
2023-09-22T16:31:49.496Z,0.80
2023-09-22T16:34:16.770Z,1.13
2023-09-22T16:36:43.976Z,0.88
2023-09-22T16:39:11.183Z,1.15
2023-09-22T16:41:38.343Z,3.47
2023-09-22T16:44:05.897Z,1.75
2023-09-22T16:46:33.585Z,2.97
2023-09-22T16:49:01.141Z,1.25
2023-09-22T16:51:28.493Z,1.27
2023-09-22T16:53:55.681Z,1.95
2023-09-22T16:56:26.139Z,2.15
2023-09-22T16:58:53.350Z,1.15
2023-09-22T17:01:20.662Z,1.77
2023-09-22T17:03:47.849Z,0.82
2023-09-22T17:06:15.065Z,1.00
2023-09-22T17:08:43.159Z,0.82
2023-09-22T17:11:13.240Z,1.63
2023-09-22T17:13:40.503Z,1.98
2023-09-22T17:16:08.747Z,2.38
2023-09-22T17:18:36.461Z,2.35
2023-09-22T17:21:10.695Z,2.45
2023-09-22T17:23:44.201Z,2.03
2023-09-22T17:26:14.386Z,2.13
2023-09-22T17:28:41.605Z,1.67
2023-09-22T17:31:10.158Z,2.20
2023-09-22T17:33:37.345Z,1.63
2023-09-22T17:36:05.017Z,1.88
2023-09-22T17:38:32.258Z,1.40
2023-09-22T17:40:59.538Z,1.40
2023-09-22T17:43:27.223Z,3.42
2023-09-22T17:45:58.478Z,2.17
2023-09-22T17:48:25.729Z,3.35
2023-09-22T17:50:53.009Z,1.95
2023-09-22T17:53:24.894Z,2.78
2023-09-22T17:55:52.667Z,1.77
2023-09-22T17:58:21.311Z,1.45
2023-09-22T18:00:54.238Z,3.08
2023-09-22T18:03:25.099Z,2.13
2023-09-22T18:05:55.708Z,2.13
2023-09-22T18:08:23.321Z,4.32
2023-09-22T18:10:50.767Z,4.18
2023-09-22T18:13:18.579Z,3.03
2023-09-22T18:15:46.812Z,2.33
2023-09-22T18:18:14.150Z,2.85
2023-09-22T18:20:41.414Z,3.33
2023-09-22T18:23:12.392Z,3.03
2023-09-22T18:25:40.844Z,2.70
2023-09-22T18:28:08.070Z,4.53
2023-09-22T18:30:39.013Z,1.98
2023-09-22T18:33:06.674Z,5.38
2023-09-22T18:35:37.624Z,1.98
2023-09-22T18:38:05.136Z,3.80
2023-09-22T18:40:33.286Z,2.17
2023-09-22T18:43:01.361Z,3.63
2023-09-22T18:45:32.049Z,2.50
2023-09-22T18:48:00.592Z,2.70
2023-09-22T18:50:28.250Z,1.83
2023-09-22T18:52:57.037Z,2.78
2023-09-22T18:55:24.399Z,2.00
2023-09-22T18:57:58.001Z,2.95
2023-09-22T19:00:25.504Z,3.03
2023-09-22T19:02:52.970Z,3.90
2023-09-22T19:05:23.235Z,4.68
2023-09-22T19:07:50.651Z,4.38
2023-09-22T19:10:18.028Z,3.67
2023-09-22T19:12:45.553Z,2.03
2023-09-22T19:15:21.575Z,5.15
2023-09-22T19:17:48.963Z,3.83
2023-09-22T19:20:16.333Z,5.60
2023-09-22T19:22:43.897Z,4.85
2023-09-22T19:25:11.210Z,4.28
2023-09-22T19:27:39.287Z,3.35
2023-09-22T19:30:07.473Z,4.25
2023-09-22T19:32:39.314Z,2.35
2023-09-22T19:35:08.808Z,5.63
2023-09-22T19:37:36.588Z,4.18
2023-09-22T19:40:08.432Z,1.85
2023-09-22T19:42:36.119Z,3.75
2023-09-22T19:45:06.503Z,2.90
2023-09-22T19:47:33.779Z,2.55
2023-09-22T19:50:01.333Z,6.38
2023-09-22T19:52:28.725Z,2.83
2023-09-22T19:54:59.286Z,2.63
2023-09-22T19:57:31.828Z,2.53
2023-09-22T19:59:59.550Z,3.92
2023-09-22T20:02:44.778Z,4.07
2023-09-22T20:05:44.190Z,2.47
2023-09-22T20:08:19.486Z,2.55
2023-09-22T20:10:49.737Z,2.65
2023-09-22T20:13:17.189Z,2.17
2023-09-22T20:15:47.740Z,5.07
2023-09-22T20:18:21.158Z,3.08
2023-09-22T20:21:01.241Z,3.20
2023-09-22T20:23:29.302Z,3.00
2023-09-22T20:26:12.711Z,2.90
2023-09-22T20:28:47.711Z,3.35
2023-09-22T20:31:28.312Z,2.58
2023-09-22T20:33:55.717Z,3.08
2023-09-22T20:36:22.988Z,3.42
2023-09-22T20:38:52.234Z,4.85
2023-09-22T20:41:30.341Z,3.35
2023-09-22T20:43:58.522Z,3.88
2023-09-22T20:46:44.023Z,3.10
2023-09-22T20:49:21.868Z,3.65
2023-09-22T20:51:52.832Z,1.90
2023-09-22T20:54:20.471Z,2.78
2023-09-22T20:56:47.957Z,2.60
2023-09-22T20:59:20.197Z,3.95
2023-09-22T21:04:17.386Z,1.65
2023-09-22T21:06:45.454Z,3.50
2023-09-22T21:09:22.435Z,2.03
2023-09-22T21:11:50.640Z,2.65
2023-09-22T21:14:19.621Z,2.03
2023-09-22T21:16:46.973Z,2.25
2023-09-22T21:19:14.383Z,2.17
2023-09-22T21:21:41.575Z,1.83
2023-09-22T21:24:09.850Z,2.92
2023-09-22T21:26:37.028Z,1.83
2023-09-22T21:29:06.937Z,2.20
2023-09-22T21:31:38.075Z,2.35
2023-09-22T21:34:06.318Z,2.67
2023-09-22T21:36:36.124Z,2.28
2023-09-22T21:39:07.848Z,2.30
2023-09-22T21:41:55.784Z,1.35
2023-09-22T21:44:25.238Z,2.28
2023-09-22T21:46:52.759Z,2.00
2023-09-22T21:49:23.496Z,3.40
2023-09-22T21:51:52.211Z,2.95
2023-09-22T21:54:19.979Z,3.65
2023-09-22T21:56:47.187Z,1.17
2023-09-22T21:59:14.403Z,3.08
2023-09-22T22:01:41.961Z,3.20
2023-09-22T22:04:10.377Z,1.88
2023-09-22T22:06:44.434Z,2.78
2023-09-22T22:09:16.357Z,2.78
2023-09-22T22:11:43.934Z,2.05
2023-09-22T22:14:14.544Z,1.55
2023-09-22T22:16:43.150Z,1.45
2023-09-22T22:19:10.719Z,2.80
2023-09-22T22:21:38.563Z,1.67
2023-09-22T22:24:09.893Z,1.80
2023-09-22T22:26:37.142Z,2.40
2023-09-22T22:29:07.422Z,3.13
2023-09-22T22:31:36.488Z,2.83
2023-09-22T22:34:03.969Z,1.55
2023-09-22T22:36:32.446Z,1.95
2023-09-22T22:39:05.896Z,2.08
2023-09-22T22:41:33.160Z,2.38
2023-09-22T22:44:00.557Z,2.88
2023-09-22T22:46:29.219Z,3.22
2023-09-22T22:48:58.174Z,1.70
2023-09-22T22:51:26.157Z,2.13
2023-09-22T22:53:54.622Z,2.67
2023-09-22T22:56:22.404Z,2.03
2023-09-22T22:58:53.089Z,4.95
2023-09-22T23:01:20.496Z,3.78
2023-09-22T23:03:48.197Z,2.25
2023-09-22T23:06:17.854Z,1.38
2023-09-22T23:08:52.595Z,2.83
2023-09-22T23:11:20.291Z,1.20
2023-09-22T23:13:47.807Z,2.08
2023-09-22T23:16:16.447Z,1.00
2023-09-22T23:18:45.866Z,2.60
2023-09-22T23:21:15.936Z,2.30
2023-09-22T23:23:44.203Z,2.88
2023-09-22T23:26:11.668Z,2.20
2023-09-22T23:28:40.778Z,5.72
2023-09-22T23:31:11.869Z,1.88
2023-09-22T23:33:40.161Z,4.18
2023-09-22T23:36:07.761Z,2.38
2023-09-22T23:38:35.036Z,3.90
2023-09-22T23:41:07.859Z,3.55
2023-09-22T23:43:35.720Z,1.95
2023-09-22T23:46:03.101Z,3.38
2023-09-22T23:48:32.969Z,1.98
2023-09-22T23:51:03.512Z,3.22
2023-09-22T23:53:34.535Z,5.25
2023-09-22T23:56:05.601Z,2.80
2023-09-22T23:58:35.155Z,1.92
